createdAt,value
2022-10-16T00:00:36.738Z,1.30
2022-10-16T00:01:45.769Z,1.50
2022-10-16T00:02:37.211Z,1.40
2022-10-16T00:03:37.432Z,1.40
2022-10-16T00:04:37.654Z,1.20
2022-10-16T00:05:37.874Z,1.40
2022-10-16T00:06:38.093Z,1.30
2022-10-16T00:07:38.332Z,1.20
2022-10-16T00:08:38.554Z,1.40
2022-10-16T00:09:38.820Z,1.50
2022-10-16T00:10:39.056Z,1.40
2022-10-16T00:11:39.310Z,1.40
2022-10-16T00:12:39.505Z,1.40
2022-10-16T00:13:39.724Z,1.30
2022-10-16T00:14:39.994Z,1.30
2022-10-16T00:15:40.210Z,1.40
2022-10-16T00:16:40.435Z,1.30
2022-10-16T00:17:40.663Z,1.40
2022-10-16T00:18:40.884Z,1.20
2022-10-16T00:19:41.121Z,1.40
2022-10-16T00:20:41.327Z,1.50
2022-10-16T00:21:41.538Z,1.30
2022-10-16T00:22:41.756Z,1.40
2022-10-16T00:23:41.973Z,1.40
2022-10-16T00:24:42.212Z,1.50
2022-10-16T00:25:42.427Z,1.40
2022-10-16T00:26:42.649Z,1.40
2022-10-16T00:27:42.917Z,1.30
2022-10-16T00:28:43.146Z,1.60
2022-10-16T00:29:43.354Z,1.40
2022-10-16T00:30:43.564Z,1.30
2022-10-16T00:31:43.782Z,1.40
2022-10-16T00:32:44.001Z,1.40
2022-10-16T00:33:44.217Z,1.30
2022-10-16T00:34:44.530Z,1.30
2022-10-16T00:35:44.630Z,1.20
2022-10-16T00:36:44.851Z,1.20
2022-10-16T00:37:45.065Z,1.50
2022-10-16T00:38:45.274Z,1.20
2022-10-16T00:39:45.499Z,1.30
2022-10-16T00:40:45.730Z,1.20
2022-10-16T00:41:45.942Z,1.10
2022-10-16T00:42:46.150Z,1.20
2022-10-16T00:43:46.375Z,1.30
2022-10-16T00:44:46.643Z,1.20
2022-10-16T00:45:46.841Z,1.20
2022-10-16T00:46:47.061Z,1.10
2022-10-16T00:47:47.291Z,1.40
2022-10-16T00:48:47.505Z,1.30
2022-10-16T00:49:47.738Z,1.40
2022-10-16T00:50:47.945Z,1.10
2022-10-16T00:51:48.160Z,1.30
2022-10-16T00:52:48.367Z,1.30
2022-10-16T00:53:48.574Z,1.20
2022-10-16T00:54:48.803Z,1.40
2022-10-16T00:55:49.000Z,1.30
2022-10-16T00:56:49.218Z,1.20
2022-10-16T00:57:49.440Z,1.40
2022-10-16T00:58:49.638Z,1.20
2022-10-16T00:59:49.851Z,1.40
2022-10-16T01:00:50.102Z,1.20
2022-10-16T01:01:50.347Z,1.30
2022-10-16T01:02:50.570Z,1.30
2022-10-16T01:03:50.777Z,1.20
2022-10-16T01:04:50.990Z,1.10
2022-10-16T01:05:51.413Z,1.20
2022-10-16T01:06:51.422Z,1.40
2022-10-16T01:07:51.645Z,1.40
2022-10-16T01:08:51.855Z,1.00
2022-10-16T01:09:52.069Z,1.20
2022-10-16T01:10:52.348Z,1.30
2022-10-16T01:11:52.469Z,1.30
2022-10-16T01:12:52.678Z,1.50
2022-10-16T01:13:52.882Z,1.20
2022-10-16T01:14:53.115Z,1.10
2022-10-16T01:15:53.325Z,1.40
2022-10-16T01:16:53.537Z,1.40
2022-10-16T01:17:53.748Z,1.50
2022-10-16T01:18:53.961Z,1.20
2022-10-16T01:19:54.181Z,1.30
2022-10-16T01:20:54.393Z,1.40
2022-10-16T01:21:54.618Z,1.40
2022-10-16T01:22:54.839Z,1.30
2022-10-16T01:23:55.055Z,1.40
2022-10-16T01:24:55.293Z,1.20
2022-10-16T01:25:56.536Z,1.10
2022-10-16T01:26:55.746Z,1.20
2022-10-16T01:27:55.954Z,1.20
2022-10-16T01:28:56.216Z,1.30
2022-10-16T01:29:56.480Z,1.30
2022-10-16T01:30:56.580Z,1.50
2022-10-16T01:31:56.794Z,1.20
2022-10-16T01:32:57.016Z,1.20
2022-10-16T01:33:57.268Z,1.30
2022-10-16T01:34:57.502Z,1.20
2022-10-16T01:35:57.746Z,1.40
2022-10-16T01:36:57.962Z,1.40
2022-10-16T01:37:58.184Z,1.30
2022-10-16T01:38:58.395Z,1.50
2022-10-16T01:39:58.629Z,1.40
2022-10-16T01:40:58.843Z,1.40
2022-10-16T01:41:59.064Z,1.20
2022-10-16T01:43:59.553Z,1.50
2022-10-16T01:44:59.794Z,1.20
2022-10-16T01:46:00.012Z,1.20
2022-10-16T01:47:00.236Z,1.30
2022-10-16T01:48:00.451Z,1.20
2022-10-16T01:49:00.673Z,1.30
2022-10-16T01:50:00.912Z,1.30
2022-10-16T01:51:01.132Z,1.20
2022-10-16T01:53:01.594Z,1.30
2022-10-16T01:54:01.809Z,1.30
2022-10-16T01:55:02.045Z,1.50
2022-10-16T01:56:02.255Z,1.50
2022-10-16T01:57:02.467Z,1.40
2022-10-16T01:58:02.672Z,1.40
2022-10-16T01:59:02.902Z,1.30
2022-10-16T02:00:03.133Z,1.20
2022-10-16T02:01:03.415Z,1.60
2022-10-16T02:02:03.537Z,1.30
2022-10-16T02:03:03.736Z,1.60
2022-10-16T02:04:03.942Z,1.40
2022-10-16T02:05:04.168Z,1.40
2022-10-16T02:06:04.389Z,1.40
2022-10-16T02:07:04.599Z,1.40
2022-10-16T02:08:05.752Z,1.30
2022-10-16T02:09:05.030Z,1.30
2022-10-16T02:10:05.249Z,1.30
2022-10-16T02:11:05.470Z,1.40
2022-10-16T02:12:05.682Z,1.20
2022-10-16T02:13:05.913Z,1.40
2022-10-16T02:14:06.122Z,1.30
2022-10-16T02:15:06.345Z,1.60
2022-10-16T02:16:06.569Z,1.50
2022-10-16T02:17:06.780Z,1.30
2022-10-16T02:18:07.004Z,1.40
2022-10-16T02:19:07.223Z,1.60
2022-10-16T02:20:07.467Z,1.50
2022-10-16T02:21:07.697Z,1.40
2022-10-16T02:22:07.914Z,1.30
2022-10-16T02:23:08.126Z,1.40
2022-10-16T02:24:08.348Z,1.30
2022-10-16T02:25:08.614Z,1.30
2022-10-16T02:26:08.797Z,1.20
2022-10-16T02:27:09.025Z,1.20
2022-10-16T02:28:09.239Z,1.30
2022-10-16T02:29:09.453Z,1.30
2022-10-16T02:30:09.693Z,1.50
2022-10-16T02:31:09.908Z,1.20
2022-10-16T02:32:10.117Z,1.50
2022-10-16T02:33:10.323Z,1.40
2022-10-16T02:34:10.531Z,1.50
2022-10-16T02:35:10.751Z,1.30
2022-10-16T02:36:10.965Z,1.20
2022-10-16T02:37:11.172Z,1.40
2022-10-16T02:39:11.652Z,1.40
2022-10-16T02:40:11.887Z,1.30
2022-10-16T02:41:12.097Z,1.20
2022-10-16T02:42:12.306Z,1.40
2022-10-16T02:43:12.524Z,1.40
2022-10-16T02:44:12.734Z,1.30
2022-10-16T02:45:12.964Z,1.30
2022-10-16T02:46:13.174Z,1.20
2022-10-16T02:47:13.401Z,1.20
2022-10-16T02:48:13.607Z,1.30
2022-10-16T02:49:13.825Z,1.40
2022-10-16T02:50:14.055Z,1.40
2022-10-16T02:51:14.259Z,1.20
2022-10-16T02:52:14.475Z,1.30
2022-10-16T02:53:14.697Z,1.40
2022-10-16T02:54:14.914Z,1.30
2022-10-16T02:55:15.144Z,1.20
2022-10-16T02:56:15.407Z,1.30
2022-10-16T02:57:15.592Z,1.20
2022-10-16T02:58:15.820Z,1.30
2022-10-16T02:59:16.044Z,1.30
2022-10-16T03:00:16.279Z,1.20
2022-10-16T03:01:16.607Z,1.20
2022-10-16T03:02:19.064Z,1.20
2022-10-16T03:03:16.903Z,1.20
2022-10-16T03:04:17.118Z,1.30
2022-10-16T03:05:17.393Z,1.40
2022-10-16T03:06:17.594Z,1.20
2022-10-16T03:07:17.822Z,1.30
2022-10-16T03:08:18.042Z,1.30
2022-10-16T03:09:18.267Z,1.20
2022-10-16T03:10:18.495Z,1.40
2022-10-16T03:11:18.723Z,1.20
2022-10-16T03:12:18.936Z,1.20
2022-10-16T03:13:19.159Z,1.30
2022-10-16T03:14:19.424Z,1.40
2022-10-16T03:15:19.642Z,1.20
2022-10-16T03:16:19.869Z,1.40
2022-10-16T03:17:20.086Z,1.50
2022-10-16T03:18:20.302Z,1.30
2022-10-16T03:19:20.521Z,1.20
2022-10-16T03:20:20.752Z,1.20
2022-10-16T03:21:20.972Z,1.50
2022-10-16T03:22:21.212Z,1.40
2022-10-16T03:23:21.470Z,1.50
2022-10-16T03:24:21.700Z,1.20
2022-10-16T03:25:21.934Z,1.20
2022-10-16T03:26:22.156Z,1.30
2022-10-16T03:27:22.369Z,1.50
2022-10-16T03:28:22.653Z,1.20
2022-10-16T03:29:22.860Z,1.40
2022-10-16T03:30:23.090Z,1.70
2022-10-16T03:31:23.330Z,1.30
2022-10-16T03:32:23.578Z,1.40
2022-10-16T03:33:23.781Z,1.40
2022-10-16T03:34:24.005Z,1.20
2022-10-16T03:35:24.246Z,1.40
2022-10-16T03:36:24.463Z,1.50
2022-10-16T03:37:25.154Z,1.40
2022-10-16T03:38:24.956Z,1.40
2022-10-16T03:39:25.179Z,1.50
2022-10-16T03:40:25.424Z,1.60
2022-10-16T03:41:25.638Z,1.40
2022-10-16T03:42:25.858Z,1.30
2022-10-16T03:43:26.079Z,1.50
2022-10-16T03:44:26.309Z,1.30
2022-10-16T03:45:26.548Z,1.40
2022-10-16T03:46:26.768Z,1.60
2022-10-16T03:47:27.423Z,1.50
2022-10-16T03:48:27.255Z,1.50
2022-10-16T03:49:27.502Z,1.60
2022-10-16T03:50:27.768Z,1.60
2022-10-16T03:51:27.997Z,1.50
2022-10-16T03:52:28.226Z,1.40
2022-10-16T03:53:28.460Z,1.40
2022-10-16T03:54:28.680Z,1.50
2022-10-16T03:55:28.926Z,1.40
2022-10-16T03:56:29.148Z,1.60
2022-10-16T03:57:29.825Z,1.60
2022-10-16T03:58:29.656Z,1.50
2022-10-16T03:59:29.879Z,1.90
2022-10-16T04:00:30.124Z,1.40
2022-10-16T04:01:30.363Z,1.50
2022-10-16T04:02:30.576Z,1.60
2022-10-16T04:03:30.796Z,1.50
2022-10-16T04:04:31.014Z,1.50
2022-10-16T04:05:31.274Z,1.40
2022-10-16T04:06:31.495Z,1.60
2022-10-16T04:07:31.725Z,1.50
2022-10-16T04:08:31.964Z,1.60
2022-10-16T04:09:32.196Z,1.50
2022-10-16T04:10:32.435Z,1.50
2022-10-16T04:11:32.680Z,1.60
2022-10-16T04:12:32.904Z,1.60
2022-10-16T04:13:33.144Z,1.60
2022-10-16T04:14:33.368Z,1.50
2022-10-16T04:15:33.622Z,1.60
2022-10-16T04:16:33.850Z,1.60
2022-10-16T04:17:34.076Z,1.40
2022-10-16T04:18:34.293Z,1.60
2022-10-16T04:19:34.512Z,1.70
2022-10-16T04:20:34.761Z,1.50
2022-10-16T04:21:34.991Z,1.50
2022-10-16T04:22:35.223Z,1.50
2022-10-16T04:23:35.457Z,1.70
2022-10-16T04:24:35.685Z,1.60
2022-10-16T04:25:35.921Z,1.50
2022-10-16T04:26:36.146Z,1.50
2022-10-16T04:27:36.382Z,1.40
2022-10-16T04:28:36.640Z,1.70
2022-10-16T04:29:36.819Z,1.50
2022-10-16T04:30:37.069Z,1.40
2022-10-16T04:31:37.289Z,1.50
2022-10-16T04:32:37.509Z,1.60
2022-10-16T04:33:37.734Z,1.70
2022-10-16T04:34:37.964Z,1.60
2022-10-16T04:35:38.217Z,1.40
2022-10-16T04:36:38.437Z,1.60
2022-10-16T04:37:38.661Z,1.70
2022-10-16T04:38:38.875Z,1.60
2022-10-16T04:39:39.106Z,1.70
2022-10-16T04:40:39.343Z,1.50
2022-10-16T04:41:39.578Z,1.50
2022-10-16T04:42:39.785Z,1.60
2022-10-16T04:43:40.011Z,1.60
2022-10-16T04:44:40.228Z,1.50
2022-10-16T04:45:40.449Z,1.50
2022-10-16T04:46:40.687Z,1.40
2022-10-16T04:47:40.901Z,1.60
2022-10-16T04:48:41.129Z,1.40
2022-10-16T04:49:41.350Z,1.40
2022-10-16T04:50:41.582Z,1.50
2022-10-16T04:51:41.795Z,1.60
2022-10-16T04:52:42.019Z,1.40
2022-10-16T04:53:42.249Z,1.50
2022-10-16T04:54:42.459Z,1.60
2022-10-16T04:55:42.679Z,1.60
2022-10-16T04:56:42.902Z,1.50
2022-10-16T04:57:43.137Z,1.70
2022-10-16T04:58:43.367Z,1.60
2022-10-16T04:59:43.593Z,1.70
2022-10-16T05:00:43.839Z,1.40
2022-10-16T05:01:44.065Z,1.60
2022-10-16T05:02:44.336Z,1.70
2022-10-16T05:03:44.472Z,1.50
2022-10-16T05:04:44.706Z,1.60
2022-10-16T05:05:44.951Z,1.80
2022-10-16T05:06:45.177Z,1.70
2022-10-16T05:07:45.417Z,1.60
2022-10-16T05:08:45.650Z,1.60
2022-10-16T05:09:45.881Z,1.80
2022-10-16T05:10:46.140Z,1.60
2022-10-16T05:11:46.372Z,1.70
2022-10-16T05:12:46.611Z,1.50
2022-10-16T05:13:46.850Z,2.00
2022-10-16T05:14:47.081Z,1.70
2022-10-16T05:15:47.327Z,1.80
2022-10-16T05:16:48.166Z,1.70
2022-10-16T05:17:47.847Z,1.70
2022-10-16T05:18:52.974Z,1.70
2022-10-16T05:19:49.263Z,1.60
2022-10-16T05:20:48.491Z,1.70
2022-10-16T05:21:48.720Z,1.50
2022-10-16T05:22:48.956Z,1.60
2022-10-16T05:23:49.163Z,2.00
2022-10-16T05:24:49.408Z,1.70
2022-10-16T05:25:49.660Z,1.50
2022-10-16T05:26:49.887Z,1.70
2022-10-16T05:27:50.114Z,1.80
2022-10-16T05:28:50.411Z,1.70
2022-10-16T05:29:50.539Z,1.60
2022-10-16T05:30:50.766Z,1.90
2022-10-16T05:31:50.984Z,1.80
2022-10-16T05:32:51.215Z,1.80
2022-10-16T05:33:51.436Z,1.70
2022-10-16T05:34:51.679Z,1.90
2022-10-16T05:35:51.924Z,1.90
2022-10-16T05:36:52.167Z,2.10
2022-10-16T05:37:52.390Z,2.00
2022-10-16T05:38:52.617Z,2.10
2022-10-16T05:39:52.852Z,2.00
2022-10-16T05:40:53.087Z,2.20
2022-10-16T05:41:53.320Z,2.00
2022-10-16T05:42:53.544Z,2.00
2022-10-16T05:43:53.778Z,2.00
2022-10-16T05:44:54.014Z,2.10
2022-10-16T05:45:54.265Z,1.90
2022-10-16T05:46:54.490Z,2.10
2022-10-16T05:47:54.735Z,2.00
2022-10-16T05:48:54.960Z,2.30
2022-10-16T05:49:55.206Z,2.10
2022-10-16T05:50:55.450Z,2.00
2022-10-16T05:51:55.690Z,2.00
2022-10-16T05:52:55.941Z,2.20
2022-10-16T05:53:56.175Z,2.00
2022-10-16T05:54:56.411Z,2.10
2022-10-16T05:55:56.661Z,2.10
2022-10-16T05:56:56.904Z,2.00
2022-10-16T05:57:57.131Z,2.00
2022-10-16T05:58:57.363Z,1.90
2022-10-16T05:59:57.599Z,2.00
2022-10-16T06:00:57.885Z,1.90
2022-10-16T06:01:58.136Z,2.00
2022-10-16T06:02:58.378Z,2.00
2022-10-16T06:03:58.621Z,1.90
2022-10-16T06:04:58.848Z,2.10
2022-10-16T06:05:59.088Z,2.40
2022-10-16T06:06:59.289Z,2.10
2022-10-16T06:07:59.521Z,1.90
2022-10-16T06:08:59.758Z,2.00
2022-10-16T06:09:59.988Z,2.00
2022-10-16T06:11:00.227Z,1.90
2022-10-16T06:12:00.459Z,2.10
2022-10-16T06:13:00.704Z,2.00
2022-10-16T06:14:00.934Z,2.00
2022-10-16T06:15:01.166Z,2.00
2022-10-16T06:16:01.397Z,2.10
2022-10-16T06:17:01.658Z,2.10
2022-10-16T06:18:01.891Z,2.20
2022-10-16T06:19:02.124Z,2.30
2022-10-16T06:20:02.357Z,2.40
2022-10-16T06:21:02.591Z,2.10
2022-10-16T06:22:02.826Z,2.20
2022-10-16T06:23:03.061Z,2.20
2022-10-16T06:24:03.301Z,2.10
2022-10-16T06:25:03.525Z,2.20
2022-10-16T06:26:03.754Z,2.10
2022-10-16T06:27:03.997Z,2.10
2022-10-16T06:28:04.226Z,2.00
2022-10-16T06:29:04.558Z,2.10
2022-10-16T06:30:04.701Z,1.90
2022-10-16T06:31:08.110Z,2.40
2022-10-16T06:32:05.220Z,1.90
2022-10-16T06:33:05.434Z,1.90
2022-10-16T06:34:05.672Z,2.00
2022-10-16T06:35:05.874Z,2.00
2022-10-16T06:36:06.114Z,1.70
2022-10-16T06:37:06.348Z,1.70
2022-10-16T06:38:06.578Z,1.80
2022-10-16T06:39:06.813Z,1.90
2022-10-16T06:40:07.044Z,1.90
2022-10-16T06:41:07.305Z,1.70
2022-10-16T06:42:07.594Z,1.70
2022-10-16T06:43:07.783Z,1.70
2022-10-16T06:44:08.014Z,1.80
2022-10-16T06:45:08.252Z,1.90
2022-10-16T06:46:08.497Z,2.00
2022-10-16T06:47:08.737Z,1.80
2022-10-16T06:48:08.954Z,1.90
2022-10-16T06:49:09.187Z,1.70
2022-10-16T06:50:09.421Z,2.00
2022-10-16T06:51:09.677Z,1.80
2022-10-16T06:52:09.905Z,1.70
2022-10-16T06:53:10.142Z,1.90
2022-10-16T06:54:10.371Z,1.70
2022-10-16T06:55:10.592Z,1.80
2022-10-16T06:56:10.832Z,1.80
2022-10-16T06:57:11.055Z,1.70
2022-10-16T06:58:11.330Z,1.60
2022-10-16T06:59:11.554Z,1.80
2022-10-16T07:00:11.819Z,1.70
2022-10-16T07:01:12.049Z,1.50
2022-10-16T07:02:12.272Z,1.70
2022-10-16T07:03:12.505Z,1.60
2022-10-16T07:04:12.731Z,1.60
2022-10-16T07:05:12.958Z,1.50
2022-10-16T07:06:13.196Z,1.50
2022-10-16T07:07:13.422Z,1.80
2022-10-16T07:08:13.648Z,2.10
2022-10-16T07:09:13.871Z,1.80
2022-10-16T07:10:14.083Z,1.70
2022-10-16T07:11:14.350Z,1.40
2022-10-16T07:12:14.588Z,3.20
2022-10-16T07:13:14.801Z,1.80
2022-10-16T07:14:15.016Z,1.50
2022-10-16T07:15:15.239Z,1.30
2022-10-16T07:16:15.467Z,1.50
2022-10-16T07:17:15.678Z,1.40
2022-10-16T07:18:15.893Z,1.50
2022-10-16T07:19:16.101Z,1.30
2022-10-16T07:20:16.322Z,1.40
2022-10-16T07:21:16.547Z,1.40
2022-10-16T07:22:16.760Z,1.50
2022-10-16T07:23:16.977Z,1.30
2022-10-16T07:24:17.184Z,1.40
2022-10-16T07:25:17.399Z,1.30
2022-10-16T07:26:17.633Z,1.70
2022-10-16T07:27:17.861Z,1.30
2022-10-16T07:28:18.076Z,1.40
2022-10-16T07:29:18.309Z,1.40
2022-10-16T07:30:18.523Z,1.40
2022-10-16T07:31:18.774Z,1.20
2022-10-16T07:32:18.987Z,1.40
2022-10-16T07:33:19.198Z,1.20
2022-10-16T07:34:19.448Z,1.30
2022-10-16T07:35:19.679Z,1.20
2022-10-16T07:36:19.956Z,1.20
2022-10-16T07:37:20.093Z,1.30
2022-10-16T07:38:20.293Z,1.40
2022-10-16T07:39:20.516Z,1.30
2022-10-16T07:40:20.725Z,1.20
2022-10-16T07:41:20.967Z,1.20
2022-10-16T07:42:21.165Z,1.10
2022-10-16T07:43:21.373Z,1.40
2022-10-16T07:44:21.614Z,4.50
2022-10-16T07:45:21.812Z,1.40
2022-10-16T07:46:22.036Z,1.80
2022-10-16T07:47:22.263Z,2.40
2022-10-16T07:48:22.474Z,2.40
2022-10-16T07:49:22.700Z,1.50
2022-10-16T07:50:22.965Z,3.90
2022-10-16T07:51:23.131Z,1.20
2022-10-16T07:52:23.352Z,1.30
2022-10-16T07:53:26.340Z,1.20
2022-10-16T07:54:23.832Z,1.20
2022-10-16T07:55:24.034Z,1.20
2022-10-16T07:56:24.283Z,1.20
2022-10-16T07:57:24.843Z,1.30
2022-10-16T07:58:24.734Z,1.20
2022-10-16T07:59:24.938Z,1.30
2022-10-16T08:00:25.145Z,1.30
2022-10-16T08:01:25.475Z,1.20
2022-10-16T08:02:25.582Z,1.40
2022-10-16T08:03:25.805Z,1.20
2022-10-16T08:04:26.004Z,1.50
2022-10-16T08:05:26.264Z,1.30
2022-10-16T08:06:27.807Z,1.30
2022-10-16T08:07:26.925Z,1.30
2022-10-16T08:08:26.861Z,1.20
2022-10-16T08:09:27.063Z,1.20
2022-10-16T08:10:27.276Z,1.20
2022-10-16T08:11:27.502Z,1.30
2022-10-16T08:12:27.715Z,1.20
2022-10-16T08:13:27.925Z,1.20
2022-10-16T08:14:28.121Z,1.30
2022-10-16T08:15:28.343Z,1.20
2022-10-16T08:16:28.582Z,1.30
2022-10-16T08:17:29.085Z,1.30
2022-10-16T08:18:29.022Z,1.30
2022-10-16T08:19:29.262Z,1.10
2022-10-16T08:20:29.473Z,1.30
2022-10-16T08:21:30.613Z,1.20
2022-10-16T08:22:29.954Z,1.10
2022-10-16T08:23:30.165Z,1.00
2022-10-16T08:24:30.373Z,1.10
2022-10-16T08:25:30.642Z,1.40
2022-10-16T08:26:30.833Z,1.30
2022-10-16T08:27:31.047Z,1.10
2022-10-16T08:28:31.339Z,1.20
2022-10-16T08:29:31.456Z,1.00
2022-10-16T08:30:31.662Z,1.00
2022-10-16T08:31:31.870Z,1.10
2022-10-16T08:32:32.416Z,1.30
2022-10-16T08:33:32.289Z,1.10
2022-10-16T08:34:32.513Z,1.00
2022-10-16T08:35:32.733Z,1.00
2022-10-16T08:36:32.956Z,0.90
2022-10-16T08:37:33.163Z,1.10
2022-10-16T08:38:33.354Z,1.10
2022-10-16T08:39:33.556Z,0.90
2022-10-16T08:40:33.851Z,1.00
2022-10-16T08:41:33.991Z,1.10
2022-10-16T08:42:34.225Z,0.80
2022-10-16T08:43:34.425Z,0.90
2022-10-16T08:44:34.632Z,1.20
2022-10-16T08:45:34.838Z,0.90
2022-10-16T08:46:35.056Z,0.90
2022-10-16T08:47:35.256Z,1.00
2022-10-16T08:48:35.442Z,1.20
2022-10-16T08:49:35.680Z,0.90
2022-10-16T08:50:35.892Z,1.00
2022-10-16T08:51:37.951Z,1.00
2022-10-16T08:52:36.330Z,1.20
2022-10-16T08:53:36.534Z,1.00
2022-10-16T08:54:36.762Z,1.00
2022-10-16T08:55:36.995Z,0.90
2022-10-16T08:56:37.201Z,1.00
2022-10-16T08:57:37.464Z,0.90
2022-10-16T08:58:37.686Z,0.80
2022-10-16T08:59:37.872Z,1.00
2022-10-16T09:00:38.125Z,0.90
2022-10-16T09:01:38.320Z,1.10
2022-10-16T09:02:38.536Z,0.90
2022-10-16T09:03:38.747Z,1.00
2022-10-16T09:04:38.964Z,0.90
2022-10-16T09:05:39.176Z,1.00
2022-10-16T09:06:39.419Z,0.90
2022-10-16T09:07:39.625Z,0.80
2022-10-16T09:08:39.838Z,1.80
2022-10-16T09:09:40.037Z,1.70
2022-10-16T09:10:40.254Z,1.00
2022-10-16T09:11:40.475Z,2.80
2022-10-16T09:12:40.663Z,1.20
2022-10-16T09:13:40.863Z,1.00
2022-10-16T09:14:41.076Z,1.00
2022-10-16T09:15:41.269Z,0.90
2022-10-16T09:16:41.504Z,1.00
2022-10-16T09:17:41.699Z,1.20
2022-10-16T09:18:41.879Z,1.00
2022-10-16T09:19:42.085Z,1.30
2022-10-16T09:20:42.266Z,0.90
2022-10-16T09:21:42.468Z,1.00
2022-10-16T09:22:42.660Z,0.90
2022-10-16T09:23:42.861Z,1.00
2022-10-16T09:24:43.053Z,0.80
2022-10-16T09:25:43.231Z,0.90
2022-10-16T09:26:43.514Z,0.80
2022-10-16T09:27:43.584Z,0.90
2022-10-16T09:28:43.859Z,0.90
2022-10-16T09:29:43.926Z,0.80
2022-10-16T09:30:44.144Z,1.30
2022-10-16T09:31:44.330Z,1.00
2022-10-16T09:32:44.509Z,0.90
2022-10-16T09:33:44.680Z,0.70
2022-10-16T09:34:44.875Z,1.00
2022-10-16T09:35:45.020Z,0.80
2022-10-16T09:36:45.221Z,0.70
2022-10-16T09:37:45.393Z,0.80
2022-10-16T09:38:45.564Z,0.80
2022-10-16T09:39:45.715Z,0.70
2022-10-16T09:40:45.899Z,0.70
2022-10-16T09:41:46.077Z,0.80
2022-10-16T09:42:46.271Z,0.70
2022-10-16T09:43:46.450Z,0.70
2022-10-16T09:44:46.669Z,0.70
2022-10-16T09:45:46.829Z,0.80
2022-10-16T09:46:47.010Z,0.60
2022-10-16T09:47:47.164Z,0.70
2022-10-16T09:48:47.323Z,0.70
2022-10-16T09:49:47.498Z,0.70
2022-10-16T09:50:47.654Z,0.90
2022-10-16T09:51:47.826Z,0.70
2022-10-16T09:52:47.970Z,0.60
2022-10-16T09:53:48.176Z,0.60
2022-10-16T09:54:48.339Z,0.70
2022-10-16T09:55:48.501Z,0.60
2022-10-16T09:56:48.698Z,0.70
2022-10-16T09:57:48.860Z,0.80
2022-10-16T09:58:49.033Z,0.60
2022-10-16T09:59:49.209Z,0.50
2022-10-16T10:00:49.387Z,0.70
2022-10-16T10:01:49.565Z,0.70
2022-10-16T10:02:49.745Z,0.70
2022-10-16T10:03:49.918Z,0.60
2022-10-16T10:04:50.100Z,0.60
2022-10-16T10:05:50.240Z,0.60
2022-10-16T10:06:50.410Z,0.70
2022-10-16T10:07:50.559Z,0.70
2022-10-16T10:08:50.721Z,0.60
2022-10-16T10:09:50.892Z,0.50
2022-10-16T10:10:51.034Z,0.70
2022-10-16T10:11:51.266Z,0.70
2022-10-16T10:12:51.328Z,0.50
2022-10-16T10:13:51.497Z,0.70
2022-10-16T10:14:51.676Z,0.60
2022-10-16T10:15:51.836Z,0.40
2022-10-16T10:16:52.010Z,0.70
2022-10-16T10:17:52.169Z,0.80
2022-10-16T10:18:52.325Z,0.50
2022-10-16T10:19:52.497Z,0.80
2022-10-16T10:20:52.689Z,0.50
2022-10-16T10:21:52.851Z,0.80
2022-10-16T10:22:53.014Z,0.70
2022-10-16T10:23:53.171Z,0.80
2022-10-16T10:24:53.329Z,0.70
2022-10-16T10:25:53.504Z,0.60
2022-10-16T10:26:53.714Z,0.60
2022-10-16T10:27:53.868Z,0.60
2022-10-16T10:28:54.093Z,0.80
2022-10-16T10:29:54.172Z,0.60
2022-10-16T10:30:54.349Z,0.60
2022-10-16T10:31:54.543Z,0.60
2022-10-16T10:32:54.732Z,0.70
2022-10-16T10:33:54.905Z,0.60
2022-10-16T10:34:56.714Z,0.80
2022-10-16T10:35:55.348Z,0.90
2022-10-16T10:36:55.433Z,0.60
2022-10-16T10:37:55.604Z,0.70
2022-10-16T10:38:55.785Z,0.80
2022-10-16T10:39:55.962Z,0.70
2022-10-16T10:40:56.157Z,0.60
2022-10-16T10:41:56.349Z,0.70
2022-10-16T10:42:56.519Z,0.50
2022-10-16T10:43:56.701Z,0.70
2022-10-16T10:44:56.860Z,0.80
2022-10-16T10:45:57.053Z,0.70
2022-10-16T10:46:57.243Z,0.60
2022-10-16T10:47:58.362Z,0.60
2022-10-16T10:48:57.520Z,0.60
2022-10-16T10:49:57.671Z,0.60
2022-10-16T10:50:57.828Z,0.90
2022-10-16T10:51:58.009Z,0.60
2022-10-16T10:52:58.169Z,0.70
2022-10-16T10:53:58.345Z,0.60
2022-10-16T10:54:58.500Z,0.60
2022-10-16T10:55:58.663Z,0.60
2022-10-16T10:56:58.851Z,0.50
2022-10-16T10:57:59.003Z,0.60
2022-10-16T10:58:59.164Z,0.60
2022-10-16T10:59:59.326Z,0.60
2022-10-16T11:00:59.492Z,0.60
2022-10-16T11:01:59.744Z,0.60
2022-10-16T11:02:59.835Z,0.40
2022-10-16T11:03:59.981Z,0.50
2022-10-16T11:05:00.170Z,0.60
2022-10-16T11:06:00.323Z,0.50
2022-10-16T11:07:00.449Z,0.60
2022-10-16T11:08:00.597Z,0.50
2022-10-16T11:09:01.567Z,0.60
2022-10-16T11:10:00.923Z,0.60
2022-10-16T11:11:01.069Z,0.60
2022-10-16T11:12:01.228Z,0.50
2022-10-16T11:13:01.371Z,0.60
2022-10-16T11:14:01.613Z,0.50
2022-10-16T11:15:01.668Z,0.60
2022-10-16T11:16:01.803Z,0.60
2022-10-16T11:17:01.949Z,0.50
2022-10-16T11:18:02.073Z,0.50
2022-10-16T11:19:02.202Z,0.50
2022-10-16T11:20:02.333Z,0.70
2022-10-16T11:21:02.465Z,0.70
2022-10-16T11:22:02.630Z,0.70
2022-10-16T11:23:02.783Z,1.10
2022-10-16T11:24:02.927Z,0.40
2022-10-16T11:25:03.074Z,0.50
2022-10-16T11:26:03.199Z,0.60
2022-10-16T11:27:03.353Z,0.50
2022-10-16T11:28:03.499Z,0.50
2022-10-16T11:29:03.686Z,0.50
2022-10-16T11:30:03.782Z,0.50
2022-10-16T11:31:03.945Z,0.60
2022-10-16T11:32:04.146Z,0.50
2022-10-16T11:33:04.214Z,0.60
2022-10-16T11:34:04.416Z,0.70
2022-10-16T11:35:04.580Z,0.40
2022-10-16T11:36:04.734Z,0.50
2022-10-16T11:37:04.922Z,0.50
2022-10-16T11:38:05.085Z,0.50
2022-10-16T11:39:05.243Z,0.50
2022-10-16T11:40:05.412Z,0.50
2022-10-16T11:41:05.583Z,0.40
2022-10-16T11:42:05.774Z,1.00
2022-10-16T11:43:05.955Z,0.50
2022-10-16T11:44:06.086Z,0.50
2022-10-16T11:45:06.241Z,0.70
2022-10-16T11:46:09.208Z,0.60
2022-10-16T11:47:33.829Z,0.70
2022-10-16T11:48:07.968Z,0.60
2022-10-16T11:49:06.801Z,0.40
2022-10-16T11:50:06.945Z,0.70
2022-10-16T11:51:07.131Z,0.40
2022-10-16T11:52:07.365Z,0.50
2022-10-16T11:53:07.466Z,0.40
2022-10-16T11:54:07.533Z,0.40
2022-10-16T11:55:07.694Z,0.50
2022-10-16T11:56:07.854Z,0.50
2022-10-16T11:57:08.032Z,0.50
2022-10-16T11:58:08.186Z,0.40
2022-10-16T11:59:08.349Z,0.50
2022-10-16T12:00:08.493Z,0.50
2022-10-16T12:01:08.651Z,0.40
2022-10-16T12:02:16.068Z,0.60
2022-10-16T12:03:09.073Z,0.40
2022-10-16T12:04:09.078Z,0.40
2022-10-16T12:05:09.243Z,0.60
2022-10-16T12:06:09.402Z,0.40
2022-10-16T12:07:09.882Z,0.30
2022-10-16T12:08:09.696Z,0.40
2022-10-16T12:09:09.847Z,0.40
2022-10-16T12:10:10.012Z,0.60
2022-10-16T12:11:10.220Z,0.40
2022-10-16T12:12:10.413Z,0.50
2022-10-16T12:13:10.476Z,0.40
2022-10-16T12:14:10.638Z,0.50
2022-10-16T12:15:19.582Z,0.40
2022-10-16T12:16:12.078Z,0.60
2022-10-16T12:17:11.159Z,0.40
2022-10-16T12:18:11.319Z,0.40
2022-10-16T12:19:11.486Z,0.50
2022-10-16T12:20:11.631Z,0.50
2022-10-16T12:21:11.799Z,0.60
2022-10-16T12:22:11.953Z,0.40
2022-10-16T12:23:12.119Z,0.60
2022-10-16T12:24:12.268Z,0.50
2022-10-16T12:25:12.411Z,0.60
2022-10-16T12:26:12.565Z,0.40
2022-10-16T12:27:12.708Z,0.50
2022-10-16T12:28:12.965Z,0.40
2022-10-16T12:29:12.970Z,0.60
2022-10-16T12:30:13.097Z,0.40
2022-10-16T12:31:13.219Z,0.30
2022-10-16T12:32:19.375Z,0.50
2022-10-16T12:33:14.458Z,0.50
2022-10-16T12:34:13.581Z,0.40
2022-10-16T12:35:13.682Z,0.40
2022-10-16T12:36:13.886Z,0.30
2022-10-16T12:37:13.893Z,0.40
2022-10-16T12:38:16.976Z,0.60
2022-10-16T12:39:14.050Z,0.50
2022-10-16T12:40:14.161Z,0.50
2022-10-16T12:41:14.251Z,0.40
2022-10-16T12:42:14.362Z,0.40
2022-10-16T12:43:14.467Z,0.60
2022-10-16T12:44:14.602Z,0.40
2022-10-16T12:45:14.728Z,0.60
2022-10-16T12:46:14.812Z,0.50
2022-10-16T12:47:14.933Z,0.70
2022-10-16T12:48:15.033Z,0.60
2022-10-16T12:49:15.142Z,0.70
2022-10-16T12:50:17.405Z,0.60
2022-10-16T12:51:15.359Z,0.50
2022-10-16T12:52:15.435Z,0.40
2022-10-16T12:53:15.533Z,0.40
2022-10-16T12:54:15.617Z,0.40
2022-10-16T12:55:15.734Z,0.20
2022-10-16T12:56:15.815Z,0.50
2022-10-16T12:57:15.934Z,0.30
2022-10-16T12:58:16.033Z,0.30
2022-10-16T12:59:16.151Z,0.50
2022-10-16T13:00:16.281Z,0.50
2022-10-16T13:01:16.388Z,0.60
2022-10-16T13:02:16.509Z,0.30
2022-10-16T13:03:16.705Z,0.30
2022-10-16T13:04:16.786Z,0.50
2022-10-16T13:05:17.772Z,0.30
2022-10-16T13:06:16.867Z,0.40
2022-10-16T13:07:16.975Z,0.30
2022-10-16T13:08:17.076Z,0.30
2022-10-16T13:09:17.173Z,0.40
2022-10-16T13:10:17.264Z,0.30
2022-10-16T13:11:17.405Z,0.50
2022-10-16T13:12:17.379Z,0.60
2022-10-16T13:13:17.556Z,0.70
2022-10-16T13:14:17.576Z,0.70
2022-10-16T13:15:17.556Z,0.50
2022-10-16T13:16:17.646Z,0.40
2022-10-16T13:17:17.737Z,0.40
2022-10-16T13:18:17.892Z,0.50
2022-10-16T13:19:17.899Z,0.40
2022-10-16T13:20:17.996Z,0.40
2022-10-16T13:21:18.124Z,0.40
2022-10-16T13:22:18.224Z,0.40
2022-10-16T13:23:18.357Z,0.30
2022-10-16T13:24:18.541Z,0.30